sensor_id;sensor_type;location;lat;lon;timestamp;P1;durP1;ratioP1;P2;durP2;ratioP2
55330;SDS011;58851;42.984;20.336;2022-10-16T00:01:15;54.55;;;34.13;;
55330;SDS011;58851;42.984;20.336;2022-10-16T00:03:43;66.05;;;40.35;;
55330;SDS011;58851;42.984;20.336;2022-10-16T00:06:10;65.88;;;37.78;;
55330;SDS011;58851;42.984;20.336;2022-10-16T00:08:36;51.30;;;30.55;;
55330;SDS011;58851;42.984;20.336;2022-10-16T00:11:07;41.65;;;27.13;;
55330;SDS011;58851;42.984;20.336;2022-10-16T00:13:36;39.75;;;24.10;;
55330;SDS011;58851;42.984;20.336;2022-10-16T00:16:04;37.58;;;20.45;;
55330;SDS011;58851;42.984;20.336;2022-10-16T00:18:30;32.13;;;18.85;;
55330;SDS011;58851;42.984;20.336;2022-10-16T00:21:01;30.75;;;18.70;;
55330;SDS011;58851;42.984;20.336;2022-10-16T00:23:28;34.67;;;21.63;;
55330;SDS011;58851;42.984;20.336;2022-10-16T00:25:54;33.38;;;20.55;;
55330;SDS011;58851;42.984;20.336;2022-10-16T00:28:24;31.60;;;18.73;;
55330;SDS011;58851;42.984;20.336;2022-10-16T00:30:50;27.10;;;17.88;;
55330;SDS011;58851;42.984;20.336;2022-10-16T00:33:16;28.90;;;16.48;;
55330;SDS011;58851;42.984;20.336;2022-10-16T00:35:42;28.25;;;16.42;;
55330;SDS011;58851;42.984;20.336;2022-10-16T00:38:08;21.38;;;14.32;;
55330;SDS011;58851;42.984;20.336;2022-10-16T00:40:34;24.60;;;14.70;;
55330;SDS011;58851;42.984;20.336;2022-10-16T00:43:00;20.80;;;14.15;;
55330;SDS011;58851;42.984;20.336;2022-10-16T00:45:26;28.00;;;18.48;;
55330;SDS011;58851;42.984;20.336;2022-10-16T00:47:52;25.98;;;15.00;;
55330;SDS011;58851;42.984;20.336;2022-10-16T00:52:56;31.17;;;17.65;;
55330;SDS011;58851;42.984;20.336;2022-10-16T00:55:24;27.83;;;15.23;;
55330;SDS011;58851;42.984;20.336;2022-10-16T00:57:51;23.30;;;14.25;;
55330;SDS011;58851;42.984;20.336;2022-10-16T01:00:19;19.75;;;12.30;;
55330;SDS011;58851;42.984;20.336;2022-10-16T01:02:55;23.23;;;12.52;;
55330;SDS011;58851;42.984;20.336;2022-10-16T01:05:23;23.40;;;11.93;;
55330;SDS011;58851;42.984;20.336;2022-10-16T01:08:00;22.80;;;13.93;;
55330;SDS011;58851;42.984;20.336;2022-10-16T01:10:30;27.83;;;14.00;;
55330;SDS011;58851;42.984;20.336;2022-10-16T01:13:07;29.42;;;16.38;;
55330;SDS011;58851;42.984;20.336;2022-10-16T01:18:14;25.88;;;13.35;;
55330;SDS011;58851;42.984;20.336;2022-10-16T01:20:53;28.95;;;15.43;;
55330;SDS011;58851;42.984;20.336;2022-10-16T01:28:19;38.22;;;20.77;;
55330;SDS011;58851;42.984;20.336;2022-10-16T01:30:49;32.42;;;19.02;;
55330;SDS011;58851;42.984;20.336;2022-10-16T01:33:19;30.02;;;18.40;;
55330;SDS011;58851;42.984;20.336;2022-10-16T01:35:52;38.97;;;19.13;;
55330;SDS011;58851;42.984;20.336;2022-10-16T01:38:35;46.10;;;19.58;;
55330;SDS011;58851;42.984;20.336;2022-10-16T01:41:06;76.60;;;24.67;;
55330;SDS011;58851;42.984;20.336;2022-10-16T01:43:40;106.63;;;26.10;;
55330;SDS011;58851;42.984;20.336;2022-10-16T01:46:27;75.32;;;25.45;;
55330;SDS011;58851;42.984;20.336;2022-10-16T01:48:55;71.60;;;25.27;;
55330;SDS011;58851;42.984;20.336;2022-10-16T01:51:22;42.15;;;20.15;;
55330;SDS011;58851;42.984;20.336;2022-10-16T01:53:50;50.88;;;23.80;;
55330;SDS011;58851;42.984;20.336;2022-10-16T01:56:19;38.65;;;19.33;;
55330;SDS011;58851;42.984;20.336;2022-10-16T01:58:49;35.50;;;20.77;;
55330;SDS011;58851;42.984;20.336;2022-10-16T02:01:21;31.45;;;18.02;;
55330;SDS011;58851;42.984;20.336;2022-10-16T02:03:50;31.30;;;17.77;;
55330;SDS011;58851;42.984;20.336;2022-10-16T02:06:18;35.63;;;18.33;;
55330;SDS011;58851;42.984;20.336;2022-10-16T02:08:45;35.65;;;17.23;;
55330;SDS011;58851;42.984;20.336;2022-10-16T02:11:11;40.10;;;20.45;;
55330;SDS011;58851;42.984;20.336;2022-10-16T02:13:48;35.85;;;18.42;;
55330;SDS011;58851;42.984;20.336;2022-10-16T02:16:20;32.00;;;16.58;;
55330;SDS011;58851;42.984;20.336;2022-10-16T02:18:48;27.88;;;15.98;;
55330;SDS011;58851;42.984;20.336;2022-10-16T02:21:17;20.75;;;12.90;;
55330;SDS011;58851;42.984;20.336;2022-10-16T02:23:54;23.50;;;12.93;;
55330;SDS011;58851;42.984;20.336;2022-10-16T02:26:36;22.02;;;12.68;;
55330;SDS011;58851;42.984;20.336;2022-10-16T02:29:08;31.15;;;17.30;;
55330;SDS011;58851;42.984;20.336;2022-10-16T02:31:41;28.00;;;14.85;;
55330;SDS011;58851;42.984;20.336;2022-10-16T02:34:10;30.08;;;15.40;;
55330;SDS011;58851;42.984;20.336;2022-10-16T02:36:39;30.05;;;16.75;;
55330;SDS011;58851;42.984;20.336;2022-10-16T02:39:05;31.38;;;14.77;;
55330;SDS011;58851;42.984;20.336;2022-10-16T02:41:32;28.42;;;16.60;;
55330;SDS011;58851;42.984;20.336;2022-10-16T02:43:58;29.95;;;16.08;;
55330;SDS011;58851;42.984;20.336;2022-10-16T02:46:24;26.33;;;15.18;;
55330;SDS011;58851;42.984;20.336;2022-10-16T02:48:50;31.63;;;15.68;;
55330;SDS011;58851;42.984;20.336;2022-10-16T02:51:16;30.55;;;17.73;;
55330;SDS011;58851;42.984;20.336;2022-10-16T02:53:41;29.55;;;19.25;;
55330;SDS011;58851;42.984;20.336;2022-10-16T02:56:07;33.08;;;18.08;;
55330;SDS011;58851;42.984;20.336;2022-10-16T02:58:33;34.72;;;16.92;;
55330;SDS011;58851;42.984;20.336;2022-10-16T03:00:59;30.60;;;17.50;;
55330;SDS011;58851;42.984;20.336;2022-10-16T03:03:25;32.35;;;16.42;;
55330;SDS011;58851;42.984;20.336;2022-10-16T03:05:51;48.47;;;17.35;;
55330;SDS011;58851;42.984;20.336;2022-10-16T03:08:16;22.38;;;14.07;;
55330;SDS011;58851;42.984;20.336;2022-10-16T03:10:48;23.27;;;14.75;;
55330;SDS011;58851;42.984;20.336;2022-10-16T03:13:14;26.88;;;13.77;;
55330;SDS011;58851;42.984;20.336;2022-10-16T03:15:40;37.67;;;14.18;;
55330;SDS011;58851;42.984;20.336;2022-10-16T03:18:06;22.33;;;12.93;;
55330;SDS011;58851;42.984;20.336;2022-10-16T03:20:32;25.58;;;15.25;;
55330;SDS011;58851;42.984;20.336;2022-10-16T03:22:58;27.02;;;13.82;;
55330;SDS011;58851;42.984;20.336;2022-10-16T03:25:24;28.15;;;15.27;;
55330;SDS011;58851;42.984;20.336;2022-10-16T03:27:50;26.35;;;14.50;;
55330;SDS011;58851;42.984;20.336;2022-10-16T03:30:15;25.45;;;12.95;;
55330;SDS011;58851;42.984;20.336;2022-10-16T03:32:41;28.17;;;14.65;;
55330;SDS011;58851;42.984;20.336;2022-10-16T03:35:09;29.50;;;14.55;;
55330;SDS011;58851;42.984;20.336;2022-10-16T03:37:34;25.73;;;13.27;;
55330;SDS011;58851;42.984;20.336;2022-10-16T03:40:01;24.23;;;12.63;;
55330;SDS011;58851;42.984;20.336;2022-10-16T03:42:27;36.35;;;13.55;;
55330;SDS011;58851;42.984;20.336;2022-10-16T03:44:53;25.73;;;12.00;;
55330;SDS011;58851;42.984;20.336;2022-10-16T03:47:19;21.13;;;13.02;;
55330;SDS011;58851;42.984;20.336;2022-10-16T03:49:47;20.73;;;11.93;;
55330;SDS011;58851;42.984;20.336;2022-10-16T03:52:13;22.67;;;11.20;;
55330;SDS011;58851;42.984;20.336;2022-10-16T03:54:39;20.52;;;10.70;;
55330;SDS011;58851;42.984;20.336;2022-10-16T03:57:05;21.42;;;12.73;;
55330;SDS011;58851;42.984;20.336;2022-10-16T03:59:30;19.25;;;11.63;;
55330;SDS011;58851;42.984;20.336;2022-10-16T04:01:56;23.17;;;12.93;;
55330;SDS011;58851;42.984;20.336;2022-10-16T04:04:22;21.23;;;12.10;;
55330;SDS011;58851;42.984;20.336;2022-10-16T04:06:48;20.88;;;12.02;;
55330;SDS011;58851;42.984;20.336;2022-10-16T04:09:13;23.75;;;12.40;;
55330;SDS011;58851;42.984;20.336;2022-10-16T04:11:39;22.23;;;11.85;;
55330;SDS011;58851;42.984;20.336;2022-10-16T04:14:05;24.00;;;13.15;;
55330;SDS011;58851;42.984;20.336;2022-10-16T04:16:31;22.05;;;12.73;;
55330;SDS011;58851;42.984;20.336;2022-10-16T04:18:57;27.73;;;11.70;;
55330;SDS011;58851;42.984;20.336;2022-10-16T04:21:22;25.73;;;14.70;;
55330;SDS011;58851;42.984;20.336;2022-10-16T04:23:48;29.25;;;15.30;;
55330;SDS011;58851;42.984;20.336;2022-10-16T04:26:14;25.35;;;15.73;;
55330;SDS011;58851;42.984;20.336;2022-10-16T04:28:40;24.58;;;12.80;;
55330;SDS011;58851;42.984;20.336;2022-10-16T04:31:06;21.63;;;13.05;;
55330;SDS011;58851;42.984;20.336;2022-10-16T04:33:32;26.90;;;13.13;;
55330;SDS011;58851;42.984;20.336;2022-10-16T04:35:59;25.52;;;12.07;;
55330;SDS011;58851;42.984;20.336;2022-10-16T04:38:26;28.35;;;13.13;;
55330;SDS011;58851;42.984;20.336;2022-10-16T04:40:52;28.40;;;12.88;;
55330;SDS011;58851;42.984;20.336;2022-10-16T04:43:18;23.65;;;12.20;;
55330;SDS011;58851;42.984;20.336;2022-10-16T04:45:45;31.98;;;12.85;;
55330;SDS011;58851;42.984;20.336;2022-10-16T04:48:11;16.95;;;12.73;;
55330;SDS011;58851;42.984;20.336;2022-10-16T04:50:36;22.67;;;12.15;;
55330;SDS011;58851;42.984;20.336;2022-10-16T04:53:02;34.78;;;13.57;;
55330;SDS011;58851;42.984;20.336;2022-10-16T04:55:28;21.58;;;12.52;;
55330;SDS011;58851;42.984;20.336;2022-10-16T04:57:54;25.13;;;14.30;;
55330;SDS011;58851;42.984;20.336;2022-10-16T05:00:20;24.83;;;12.32;;
55330;SDS011;58851;42.984;20.336;2022-10-16T05:02:47;26.50;;;15.68;;
55330;SDS011;58851;42.984;20.336;2022-10-16T05:05:14;29.92;;;12.18;;
55330;SDS011;58851;42.984;20.336;2022-10-16T05:07:40;25.67;;;12.05;;
55330;SDS011;58851;42.984;20.336;2022-10-16T05:10:06;18.88;;;12.95;;
55330;SDS011;58851;42.984;20.336;2022-10-16T05:12:32;19.80;;;12.77;;
55330;SDS011;58851;42.984;20.336;2022-10-16T05:14:58;22.80;;;13.15;;
55330;SDS011;58851;42.984;20.336;2022-10-16T05:17:24;26.13;;;16.15;;
55330;SDS011;58851;42.984;20.336;2022-10-16T05:19:50;33.70;;;16.90;;
55330;SDS011;58851;42.984;20.336;2022-10-16T05:22:16;33.72;;;16.85;;
55330;SDS011;58851;42.984;20.336;2022-10-16T05:24:42;26.55;;;16.77;;
55330;SDS011;58851;42.984;20.336;2022-10-16T05:27:08;40.72;;;22.15;;
55330;SDS011;58851;42.984;20.336;2022-10-16T05:29:34;46.13;;;26.30;;
55330;SDS011;58851;42.984;20.336;2022-10-16T05:32:00;33.60;;;16.67;;
55330;SDS011;58851;42.984;20.336;2022-10-16T05:34:26;23.40;;;12.20;;
55330;SDS011;58851;42.984;20.336;2022-10-16T05:36:52;20.80;;;10.50;;
55330;SDS011;58851;42.984;20.336;2022-10-16T05:39:18;24.20;;;11.50;;
55330;SDS011;58851;42.984;20.336;2022-10-16T05:41:44;21.27;;;12.73;;
55330;SDS011;58851;42.984;20.336;2022-10-16T05:44:10;25.48;;;17.02;;
55330;SDS011;58851;42.984;20.336;2022-10-16T05:46:36;20.05;;;12.55;;
55330;SDS011;58851;42.984;20.336;2022-10-16T05:49:02;28.27;;;12.55;;
55330;SDS011;58851;42.984;20.336;2022-10-16T05:51:28;20.60;;;12.13;;
55330;SDS011;58851;42.984;20.336;2022-10-16T05:53:53;20.63;;;11.95;;
55330;SDS011;58851;42.984;20.336;2022-10-16T05:56:19;20.08;;;13.48;;
55330;SDS011;58851;42.984;20.336;2022-10-16T05:58:45;20.23;;;13.15;;
55330;SDS011;58851;42.984;20.336;2022-10-16T06:01:12;22.13;;;15.50;;
55330;SDS011;58851;42.984;20.336;2022-10-16T06:03:39;21.10;;;13.55;;
55330;SDS011;58851;42.984;20.336;2022-10-16T06:06:09;24.45;;;11.18;;
55330;SDS011;58851;42.984;20.336;2022-10-16T06:08:37;24.27;;;12.38;;
55330;SDS011;58851;42.984;20.336;2022-10-16T06:11:07;18.75;;;11.85;;
55330;SDS011;58851;42.984;20.336;2022-10-16T06:13:35;23.88;;;13.40;;
55330;SDS011;58851;42.984;20.336;2022-10-16T06:16:01;37.08;;;13.93;;
55330;SDS011;58851;42.984;20.336;2022-10-16T06:18:28;27.25;;;14.48;;
55330;SDS011;58851;42.984;20.336;2022-10-16T06:24:14;22.45;;;15.43;;
55330;SDS011;58851;42.984;20.336;2022-10-16T06:26:40;21.10;;;14.10;;
55330;SDS011;58851;42.984;20.336;2022-10-16T06:29:06;21.08;;;13.65;;
55330;SDS011;58851;42.984;20.336;2022-10-16T06:31:32;22.33;;;15.63;;
55330;SDS011;58851;42.984;20.336;2022-10-16T06:33:58;27.25;;;17.48;;
55330;SDS011;58851;42.984;20.336;2022-10-16T06:36:25;31.30;;;19.20;;
55330;SDS011;58851;42.984;20.336;2022-10-16T06:38:51;22.60;;;15.10;;
55330;SDS011;58851;42.984;20.336;2022-10-16T06:41:18;29.75;;;18.17;;
55330;SDS011;58851;42.984;20.336;2022-10-16T06:43:45;23.80;;;16.30;;
55330;SDS011;58851;42.984;20.336;2022-10-16T06:46:12;26.58;;;17.20;;
55330;SDS011;58851;42.984;20.336;2022-10-16T06:48:39;27.20;;;17.25;;
55330;SDS011;58851;42.984;20.336;2022-10-16T06:51:06;24.08;;;16.50;;
55330;SDS011;58851;42.984;20.336;2022-10-16T06:53:44;25.20;;;18.05;;
55330;SDS011;58851;42.984;20.336;2022-10-16T06:56:12;24.40;;;15.85;;
55330;SDS011;58851;42.984;20.336;2022-10-16T06:58:42;28.85;;;14.55;;
55330;SDS011;58851;42.984;20.336;2022-10-16T07:01:09;34.63;;;18.33;;
55330;SDS011;58851;42.984;20.336;2022-10-16T07:03:36;32.60;;;19.02;;
55330;SDS011;58851;42.984;20.336;2022-10-16T07:06:04;31.73;;;20.20;;
55330;SDS011;58851;42.984;20.336;2022-10-16T07:08:32;33.70;;;20.45;;
55330;SDS011;58851;42.984;20.336;2022-10-16T07:11:02;40.63;;;26.83;;
55330;SDS011;58851;42.984;20.336;2022-10-16T07:13:30;38.72;;;20.42;;
55330;SDS011;58851;42.984;20.336;2022-10-16T07:15:58;34.92;;;21.35;;
55330;SDS011;58851;42.984;20.336;2022-10-16T07:18:30;36.67;;;21.10;;
55330;SDS011;58851;42.984;20.336;2022-10-16T07:21:06;39.60;;;27.40;;
55330;SDS011;58851;42.984;20.336;2022-10-16T07:23:36;33.85;;;20.17;;
55330;SDS011;58851;42.984;20.336;2022-10-16T07:26:03;26.20;;;18.27;;
55330;SDS011;58851;42.984;20.336;2022-10-16T07:28:29;29.20;;;19.00;;
55330;SDS011;58851;42.984;20.336;2022-10-16T07:31:00;24.08;;;15.50;;
55330;SDS011;58851;42.984;20.336;2022-10-16T07:33:31;18.55;;;13.48;;
55330;SDS011;58851;42.984;20.336;2022-10-16T07:35:58;20.80;;;14.85;;
55330;SDS011;58851;42.984;20.336;2022-10-16T07:38:24;27.08;;;18.15;;
55330;SDS011;58851;42.984;20.336;2022-10-16T07:40:58;27.58;;;17.10;;
55330;SDS011;58851;42.984;20.336;2022-10-16T07:43:25;31.52;;;17.48;;
55330;SDS011;58851;42.984;20.336;2022-10-16T07:45:51;31.20;;;22.42;;
55330;SDS011;58851;42.984;20.336;2022-10-16T07:48:18;36.35;;;24.63;;
55330;SDS011;58851;42.984;20.336;2022-10-16T07:50:44;27.88;;;19.55;;
55330;SDS011;58851;42.984;20.336;2022-10-16T07:53:10;27.25;;;19.55;;
55330;SDS011;58851;42.984;20.336;2022-10-16T07:55:37;33.58;;;21.27;;
55330;SDS011;58851;42.984;20.336;2022-10-16T07:58:03;42.28;;;26.83;;
55330;SDS011;58851;42.984;20.336;2022-10-16T08:00:30;35.17;;;26.30;;
55330;SDS011;58851;42.984;20.336;2022-10-16T08:02:59;40.10;;;26.85;;
55330;SDS011;58851;42.984;20.336;2022-10-16T08:05:26;42.95;;;27.73;;
55330;SDS011;58851;42.984;20.336;2022-10-16T08:07:52;45.92;;;30.75;;
55330;SDS011;58851;42.984;20.336;2022-10-16T08:10:19;39.80;;;27.45;;
55330;SDS011;58851;42.984;20.336;2022-10-16T08:12:47;42.97;;;31.63;;
55330;SDS011;58851;42.984;20.336;2022-10-16T08:15:12;42.13;;;28.90;;
55330;SDS011;58851;42.984;20.336;2022-10-16T08:17:38;42.67;;;29.50;;
55330;SDS011;58851;42.984;20.336;2022-10-16T08:20:04;48.50;;;29.80;;
55330;SDS011;58851;42.984;20.336;2022-10-16T08:22:30;43.92;;;30.80;;
55330;SDS011;58851;42.984;20.336;2022-10-16T08:24:56;38.28;;;27.55;;
55330;SDS011;58851;42.984;20.336;2022-10-16T08:27:22;51.25;;;32.92;;
55330;SDS011;58851;42.984;20.336;2022-10-16T08:29:48;40.58;;;29.13;;
55330;SDS011;58851;42.984;20.336;2022-10-16T08:32:14;45.15;;;30.25;;
55330;SDS011;58851;42.984;20.336;2022-10-16T08:34:40;40.55;;;30.80;;
55330;SDS011;58851;42.984;20.336;2022-10-16T08:37:06;45.50;;;32.17;;
55330;SDS011;58851;42.984;20.336;2022-10-16T08:39:33;49.22;;;35.03;;
55330;SDS011;58851;42.984;20.336;2022-10-16T08:42:02;50.42;;;36.45;;
55330;SDS011;58851;42.984;20.336;2022-10-16T08:50:25;57.65;;;39.13;;
55330;SDS011;58851;42.984;20.336;2022-10-16T08:52:53;51.08;;;34.85;;
55330;SDS011;58851;42.984;20.336;2022-10-16T08:57:58;41.15;;;24.63;;
55330;SDS011;58851;42.984;20.336;2022-10-16T09:00:25;42.92;;;28.10;;
55330;SDS011;58851;42.984;20.336;2022-10-16T09:02:55;34.28;;;23.80;;
55330;SDS011;58851;42.984;20.336;2022-10-16T09:13:29;30.83;;;20.73;;
55330;SDS011;58851;42.984;20.336;2022-10-16T09:21:10;51.28;;;40.83;;
55330;SDS011;58851;42.984;20.336;2022-10-16T09:23:50;36.40;;;25.15;;
55330;SDS011;58851;42.984;20.336;2022-10-16T09:26:16;48.80;;;29.60;;
55330;SDS011;58851;42.984;20.336;2022-10-16T09:28:44;79.55;;;50.83;;
55330;SDS011;58851;42.984;20.336;2022-10-16T09:31:19;36.22;;;25.50;;
55330;SDS011;58851;42.984;20.336;2022-10-16T09:33:52;18.90;;;14.70;;
55330;SDS011;58851;42.984;20.336;2022-10-16T09:36:20;27.50;;;19.42;;
55330;SDS011;58851;42.984;20.336;2022-10-16T09:38:48;29.42;;;20.85;;
55330;SDS011;58851;42.984;20.336;2022-10-16T09:41:16;33.70;;;25.38;;
55330;SDS011;58851;42.984;20.336;2022-10-16T09:43:48;23.67;;;17.17;;
55330;SDS011;58851;42.984;20.336;2022-10-16T09:48:51;30.55;;;20.80;;
55330;SDS011;58851;42.984;20.336;2022-10-16T09:51:29;34.30;;;23.55;;
55330;SDS011;58851;42.984;20.336;2022-10-16T09:56:35;29.13;;;20.42;;
55330;SDS011;58851;42.984;20.336;2022-10-16T10:04:08;26.83;;;21.30;;
55330;SDS011;58851;42.984;20.336;2022-10-16T10:06:45;23.05;;;16.83;;
55330;SDS011;58851;42.984;20.336;2022-10-16T10:09:26;24.33;;;17.80;;
55330;SDS011;58851;42.984;20.336;2022-10-16T10:12:05;27.30;;;16.58;;
55330;SDS011;58851;42.984;20.336;2022-10-16T10:14:46;24.52;;;16.23;;
55330;SDS011;58851;42.984;20.336;2022-10-16T10:17:26;22.02;;;13.50;;
55330;SDS011;58851;42.984;20.336;2022-10-16T10:19:54;22.30;;;12.90;;
55330;SDS011;58851;42.984;20.336;2022-10-16T10:24:56;21.52;;;14.75;;
55330;SDS011;58851;42.984;20.336;2022-10-16T10:27:31;25.45;;;17.58;;
55330;SDS011;58851;42.984;20.336;2022-10-16T10:30:01;14.75;;;12.07;;
55330;SDS011;58851;42.984;20.336;2022-10-16T10:33:23;16.00;;;12.63;;
55330;SDS011;58851;42.984;20.336;2022-10-16T10:38:51;13.90;;;9.85;;
55330;SDS011;58851;42.984;20.336;2022-10-16T10:41:39;14.52;;;9.38;;
55330;SDS011;58851;42.984;20.336;2022-10-16T10:47:18;12.15;;;8.90;;
55330;SDS011;58851;42.984;20.336;2022-10-16T10:53:26;9.73;;;7.25;;
55330;SDS011;58851;42.984;20.336;2022-10-16T11:01:16;12.50;;;9.60;;
55330;SDS011;58851;42.984;20.336;2022-10-16T11:06:46;12.00;;;9.07;;
55330;SDS011;58851;42.984;20.336;2022-10-16T11:09:18;13.20;;;7.47;;
55330;SDS011;58851;42.984;20.336;2022-10-16T11:11:52;11.82;;;7.78;;
55330;SDS011;58851;42.984;20.336;2022-10-16T11:14:21;12.15;;;7.93;;
55330;SDS011;58851;42.984;20.336;2022-10-16T11:16:57;9.43;;;5.82;;
55330;SDS011;58851;42.984;20.336;2022-10-16T11:25:35;10.40;;;6.13;;
55330;SDS011;58851;42.984;20.336;2022-10-16T11:27:57;13.13;;;7.25;;
55330;SDS011;58851;42.984;20.336;2022-10-16T11:30:28;12.55;;;7.70;;
55330;SDS011;58851;42.984;20.336;2022-10-16T11:33:00;11.23;;;6.95;;
55330;SDS011;58851;42.984;20.336;2022-10-16T11:38:58;13.85;;;8.25;;
55330;SDS011;58851;42.984;20.336;2022-10-16T11:41:19;9.98;;;6.60;;
55330;SDS011;58851;42.984;20.336;2022-10-16T11:44:02;10.32;;;6.38;;
55330;SDS011;58851;42.984;20.336;2022-10-16T11:46:43;12.73;;;6.95;;
55330;SDS011;58851;42.984;20.336;2022-10-16T11:49:17;11.23;;;7.17;;
55330;SDS011;58851;42.984;20.336;2022-10-16T11:51:48;11.63;;;8.30;;
55330;SDS011;58851;42.984;20.336;2022-10-16T11:54:31;8.40;;;6.10;;
55330;SDS011;58851;42.984;20.336;2022-10-16T11:59:56;9.18;;;6.07;;
55330;SDS011;58851;42.984;20.336;2022-10-16T12:08:28;7.85;;;5.22;;
55330;SDS011;58851;42.984;20.336;2022-10-16T12:11:03;11.82;;;6.00;;
55330;SDS011;58851;42.984;20.336;2022-10-16T12:13:45;9.18;;;5.10;;
55330;SDS011;58851;42.984;20.336;2022-10-16T12:18:48;13.48;;;6.80;;
55330;SDS011;58851;42.984;20.336;2022-10-16T12:21:15;53.20;;;35.90;;
55330;SDS011;58851;42.984;20.336;2022-10-16T12:23:51;16.08;;;11.70;;
55330;SDS011;58851;42.984;20.336;2022-10-16T12:26:34;8.77;;;5.32;;
55330;SDS011;58851;42.984;20.336;2022-10-16T12:32:01;13.38;;;10.68;;
55330;SDS011;58851;42.984;20.336;2022-10-16T12:34:32;10.50;;;6.78;;
55330;SDS011;58851;42.984;20.336;2022-10-16T12:37:13;10.88;;;6.43;;
55330;SDS011;58851;42.984;20.336;2022-10-16T12:39:48;9.13;;;6.22;;
55330;SDS011;58851;42.984;20.336;2022-10-16T12:42:20;10.50;;;7.55;;
55330;SDS011;58851;42.984;20.336;2022-10-16T12:44:48;37.13;;;22.33;;
55330;SDS011;58851;42.984;20.336;2022-10-16T12:47:35;19.55;;;9.18;;
55330;SDS011;58851;42.984;20.336;2022-10-16T12:50:02;16.35;;;10.27;;
55330;SDS011;58851;42.984;20.336;2022-10-16T12:52:47;18.60;;;10.25;;
55330;SDS011;58851;42.984;20.336;2022-10-16T12:55:17;11.55;;;6.95;;
55330;SDS011;58851;42.984;20.336;2022-10-16T13:03:39;10.95;;;6.88;;
55330;SDS011;58851;42.984;20.336;2022-10-16T13:27:55;32.65;;;23.45;;
55330;SDS011;58851;42.984;20.336;2022-10-16T13:30:31;10.77;;;6.72;;
55330;SDS011;58851;42.984;20.336;2022-10-16T13:33:04;8.35;;;5.60;;
55330;SDS011;58851;42.984;20.336;2022-10-16T13:35:35;13.50;;;6.70;;
55330;SDS011;58851;42.984;20.336;2022-10-16T13:38:05;16.15;;;9.05;;
55330;SDS011;58851;42.984;20.336;2022-10-16T13:40:52;13.18;;;6.63;;
55330;SDS011;58851;42.984;20.336;2022-10-16T13:43:39;17.52;;;11.25;;
55330;SDS011;58851;42.984;20.336;2022-10-16T13:46:23;14.95;;;9.70;;
55330;SDS011;58851;42.984;20.336;2022-10-16T13:49:10;29.27;;;14.82;;
55330;SDS011;58851;42.984;20.336;2022-10-16T13:51:38;11.73;;;7.00;;
55330;SDS011;58851;42.984;20.336;2022-10-16T13:54:04;19.42;;;12.43;;
55330;SDS011;58851;42.984;20.336;2022-10-16T13:56:31;16.73;;;7.97;;
55330;SDS011;58851;42.984;20.336;2022-10-16T13:59:01;14.75;;;10.98;;
55330;SDS011;58851;42.984;20.336;2022-10-16T14:01:49;10.35;;;6.22;;
55330;SDS011;58851;42.984;20.336;2022-10-16T14:04:16;6.95;;;4.20;;
55330;SDS011;58851;42.984;20.336;2022-10-16T14:06:43;8.38;;;5.43;;
55330;SDS011;58851;42.984;20.336;2022-10-16T14:09:22;13.13;;;6.93;;
55330;SDS011;58851;42.984;20.336;2022-10-16T14:11:58;9.75;;;7.60;;
55330;SDS011;58851;42.984;20.336;2022-10-16T14:14:40;13.65;;;9.23;;
55330;SDS011;58851;42.984;20.336;2022-10-16T14:17:14;8.43;;;5.75;;
55330;SDS011;58851;42.984;20.336;2022-10-16T14:19:47;13.98;;;9.02;;
55330;SDS011;58851;42.984;20.336;2022-10-16T14:22:35;15.35;;;12.05;;
55330;SDS011;58851;42.984;20.336;2022-10-16T14:25:01;18.75;;;8.23;;
55330;SDS011;58851;42.984;20.336;2022-10-16T14:30:30;82.07;;;67.80;;
55330;SDS011;58851;42.984;20.336;2022-10-16T14:33:05;17.88;;;15.93;;
55330;SDS011;58851;42.984;20.336;2022-10-16T14:35:45;15.77;;;11.48;;
55330;SDS011;58851;42.984;20.336;2022-10-16T14:38:16;9.95;;;7.75;;
55330;SDS011;58851;42.984;20.336;2022-10-16T14:40:46;9.45;;;7.47;;
55330;SDS011;58851;42.984;20.336;2022-10-16T14:43:14;25.75;;;13.95;;
55330;SDS011;58851;42.984;20.336;2022-10-16T14:45:50;13.43;;;6.88;;
55330;SDS011;58851;42.984;20.336;2022-10-16T14:48:19;21.10;;;12.30;;
55330;SDS011;58851;42.984;20.336;2022-10-16T14:50:46;21.45;;;13.95;;
55330;SDS011;58851;42.984;20.336;2022-10-16T14:53:12;28.80;;;17.58;;
55330;SDS011;58851;42.984;20.336;2022-10-16T14:55:39;24.40;;;16.75;;
55330;SDS011;58851;42.984;20.336;2022-10-16T14:58:09;16.98;;;9.88;;
55330;SDS011;58851;42.984;20.336;2022-10-16T15:00:44;11.27;;;7.38;;
55330;SDS011;58851;42.984;20.336;2022-10-16T15:03:10;12.38;;;8.05;;
55330;SDS011;58851;42.984;20.336;2022-10-16T15:05:36;10.77;;;7.72;;
55330;SDS011;58851;42.984;20.336;2022-10-16T15:08:02;16.98;;;10.65;;
55330;SDS011;58851;42.984;20.336;2022-10-16T15:10:29;20.23;;;10.73;;
55330;SDS011;58851;42.984;20.336;2022-10-16T15:12:58;13.60;;;10.13;;
55330;SDS011;58851;42.984;20.336;2022-10-16T15:15:37;13.05;;;7.78;;
55330;SDS011;58851;42.984;20.336;2022-10-16T15:18:05;10.40;;;6.85;;
55330;SDS011;58851;42.984;20.336;2022-10-16T15:20:32;18.33;;;8.68;;
55330;SDS011;58851;42.984;20.336;2022-10-16T15:23:01;10.85;;;6.40;;
55330;SDS011;58851;42.984;20.336;2022-10-16T15:25:32;14.00;;;6.75;;
55330;SDS011;58851;42.984;20.336;2022-10-16T15:28:01;25.17;;;13.32;;
55330;SDS011;58851;42.984;20.336;2022-10-16T15:30:27;19.08;;;11.70;;
55330;SDS011;58851;42.984;20.336;2022-10-16T15:32:53;15.30;;;10.50;;
55330;SDS011;58851;42.984;20.336;2022-10-16T15:35:19;12.55;;;8.55;;
55330;SDS011;58851;42.984;20.336;2022-10-16T15:37:46;20.58;;;11.80;;
55330;SDS011;58851;42.984;20.336;2022-10-16T15:40:13;21.27;;;14.68;;
55330;SDS011;58851;42.984;20.336;2022-10-16T15:42:39;23.85;;;14.40;;
55330;SDS011;58851;42.984;20.336;2022-10-16T15:45:06;23.13;;;15.80;;
55330;SDS011;58851;42.984;20.336;2022-10-16T15:47:33;20.65;;;14.18;;
55330;SDS011;58851;42.984;20.336;2022-10-16T15:49:59;29.02;;;20.75;;
55330;SDS011;58851;42.984;20.336;2022-10-16T15:52:25;55.83;;;36.20;;
55330;SDS011;58851;42.984;20.336;2022-10-16T15:54:51;39.22;;;27.80;;
55330;SDS011;58851;42.984;20.336;2022-10-16T15:57:17;44.92;;;27.73;;
55330;SDS011;58851;42.984;20.336;2022-10-16T15:59:42;40.35;;;26.23;;
55330;SDS011;58851;42.984;20.336;2022-10-16T16:02:08;54.28;;;35.95;;
55330;SDS011;58851;42.984;20.336;2022-10-16T16:04:34;64.38;;;45.03;;
55330;SDS011;58851;42.984;20.336;2022-10-16T16:07:00;61.72;;;41.47;;
55330;SDS011;58851;42.984;20.336;2022-10-16T16:09:28;71.47;;;42.95;;
55330;SDS011;58851;42.984;20.336;2022-10-16T16:11:54;73.43;;;48.72;;
55330;SDS011;58851;42.984;20.336;2022-10-16T16:14:20;75.25;;;54.55;;
55330;SDS011;58851;42.984;20.336;2022-10-16T16:16:46;75.20;;;50.97;;
55330;SDS011;58851;42.984;20.336;2022-10-16T16:19:12;80.80;;;55.42;;
55330;SDS011;58851;42.984;20.336;2022-10-16T16:21:41;90.78;;;56.95;;
55330;SDS011;58851;42.984;20.336;2022-10-16T16:24:06;94.72;;;63.72;;